Time;durP1;ratioP1;P1;durP2;ratioP2;P2;SDS_P1;SDS_P2;PMS_P1;PMS_P2;Temp;Humidity;BMP_temperature;BMP_pressure;BME280_temperature;BME280_humidity;BME280_pressure;Samples;Min_cycle;Max_cycle;Signal;HPM_P1;HPM_P2
2022/05/19 00:02:05;;;;;;;27.95;20.05;;;19.20;54.50;;;;;;5059116;28;25056;-60
2022/05/19 00:04:32;;;;;;;29.10;21.08;;;19.20;58.30;;;;;;5057355;28;25070;-59
2022/05/19 00:06:58;;;;;;;34.50;22.77;;;19.20;57.70;;;;;;5055949;28;25062;-60
2022/05/19 00:09:24;;;;;;;29.85;19.88;;;19.20;61.40;;;;;;5057432;28;25087;-59
2022/05/19 00:11:51;;;;;;;32.05;21.15;;;19.20;62.20;;;;;;5054263;28;25088;-60
2022/05/19 00:14:18;;;;;;;29.50;20.08;;;19.10;65.60;;;;;;5056729;28;25065;-61
2022/05/19 00:16:44;;;;;;;27.55;20.55;;;19.10;71.00;;;;;;5055935;28;25115;-60
2022/05/19 00:19:10;;;;;;;33.83;21.85;;;19.10;66.50;;;;;;5055345;28;25128;-60
2022/05/19 00:21:36;;;;;;;28.52;20.80;;;19.10;70.50;;;;;;5056103;28;25076;-60
2022/05/19 00:24:02;;;;;;;29.55;22.73;;;19.10;73.30;;;;;;5054830;28;25084;-60
2022/05/19 00:26:28;;;;;;;29.67;21.90;;;19.10;78.90;;;;;;5055953;28;25099;-60
2022/05/19 00:28:53;;;;;;;31.30;22.00;;;19.10;75.40;;;;;;5055075;28;25072;-61
2022/05/19 00:31:19;;;;;;;29.33;21.33;;;19.10;78.50;;;;;;5055108;28;25055;-60
2022/05/19 00:33:45;;;;;;;27.75;21.65;;;19.10;79.40;;;;;;5054268;28;25074;-60
2022/05/19 00:36:16;;;;;;;26.67;20.63;;;19.10;79.00;;;;;;5054796;28;25056;-59
2022/05/19 00:38:42;;;;;;;27.20;21.45;;;19.00;83.20;;;;;;5051965;28;25053;-60
2022/05/19 00:41:09;;;;;;;28.15;22.77;;;19.00;83.50;;;;;;5056519;28;25095;-60
2022/05/19 00:43:37;;;;;;;32.17;22.80;;;19.00;86.60;;;;;;5054203;28;25108;-60
2022/05/19 00:46:21;;;;;;;27.90;23.00;;;19.00;86.90;;;;;;5054932;28;24908;-60
2022/05/19 00:48:58;;;;;;;35.20;22.15;;;19.00;89.30;;;;;;5055042;28;25074;-59
2022/05/19 00:51:47;;;;;;;35.03;22.50;;;19.00;90.50;;;;;;5054210;28;25078;-59
2022/05/19 00:54:20;;;;;;;33.67;23.83;;;19.00;91.80;;;;;;5055023;28;25087;-59
2022/05/19 00:56:52;;;;;;;35.53;22.33;;;19.00;87.00;;;;;;5053386;28;25067;-59
2022/05/19 00:59:33;;;;;;;32.05;24.02;;;19.00;86.50;;;;;;5054762;28;25126;-60
2022/05/19 01:01:59;;;;;;;32.70;22.13;;;19.00;88.10;;;;;;5054405;28;25120;-60
2022/05/19 01:04:36;;;;;;;31.90;23.00;;;19.00;89.70;;;;;;5055271;28;25125;-60
2022/05/19 01:07:07;;;;;;;31.17;22.92;;;19.00;86.00;;;;;;5054416;28;25171;-59
2022/05/19 01:09:35;;;;;;;30.30;22.60;;;19.00;82.60;;;;;;5054277;28;25131;-60
2022/05/19 01:12:03;;;;;;;32.20;23.77;;;19.00;80.50;;;;;;5052936;28;25128;-59
2022/05/19 01:14:30;;;;;;;30.10;22.45;;;19.10;77.60;;;;;;5054346;28;25052;-60
2022/05/19 01:16:56;;;;;;;28.50;21.95;;;19.10;77.60;;;;;;5053960;28;25099;-60
2022/05/19 01:19:42;;;;;;;30.38;22.50;;;19.10;77.30;;;;;;5053558;28;25076;-59
2022/05/19 01:22:23;;;;;;;29.70;23.65;;;19.00;78.40;;;;;;5053926;28;25125;-60
2022/05/19 01:25:06;;;;;;;31.40;23.15;;;19.10;77.60;;;;;;5054151;28;25083;-61
2022/05/19 01:27:33;;;;;;;33.88;23.85;;;19.10;78.10;;;;;;5055210;28;25073;-61
2022/05/19 01:29:59;;;;;;;34.58;24.50;;;19.10;77.30;;;;;;5056315;28;25106;-61
2022/05/19 01:32:27;;;;;;;30.35;22.13;;;19.20;74.60;;;;;;5056935;28;25095;-60
2022/05/19 01:34:53;;;;;;;31.20;22.85;;;19.20;71.90;;;;;;5055424;28;25061;-60
2022/05/19 01:37:19;;;;;;;30.52;23.95;;;19.20;71.60;;;;;;5055812;28;25075;-59
2022/05/19 01:39:49;;;;;;;35.58;22.83;;;19.10;70.30;;;;;;5055189;28;25063;-59
2022/05/19 01:42:42;;;;;;;32.30;22.35;;;19.10;69.30;;;;;;5054414;28;25070;-60
2022/05/19 01:45:22;;;;;;;34.75;24.00;;;19.20;69.60;;;;;;5054683;28;25095;-60
2022/05/19 01:47:57;;;;;;;37.47;23.63;;;19.20;65.30;;;;;;5054302;28;25061;-60
2022/05/19 01:51:04;;;;;;;36.63;24.33;;;19.20;64.20;;;;;;5054042;28;25121;-61
2022/05/19 01:53:47;;;;;;;37.70;24.30;;;19.20;64.20;;;;;;5055586;28;25062;-60
2022/05/19 01:56:23;;;;;;;38.35;23.27;;;19.20;70.00;;;;;;5057410;28;25067;-60
2022/05/19 01:59:09;;;;;;;37.15;24.55;;;19.20;66.40;;;;;;5056789;28;25081;-63
2022/05/19 02:01:36;;;;;;;34.00;24.30;;;19.20;68.20;;;;;;5058398;28;25122;-60
2022/05/19 02:04:17;;;;;;;34.05;24.88;;;19.20;64.00;;;;;;5059254;28;25066;-59
2022/05/19 02:06:58;;;;;;;53.40;30.80;;;19.20;62.00;;;;;;5057703;28;25152;-60
2022/05/19 02:09:37;;;;;;;45.17;31.48;;;19.30;83.00;;;;;;5057110;28;25122;-63
2022/05/19 02:12:05;;;;;;;52.75;37.13;;;19.20;96.90;;;;;;5056945;28;25095;-61
2022/05/19 02:14:37;;;;;;;56.78;39.95;;;19.00;99.90;;;;;;5053522;28;25134;-60
2022/05/19 02:17:08;;;;;;;58.88;41.33;;;19.00;99.90;;;;;;5057984;28;25139;-62
2022/05/19 02:19:42;;;;;;;64.38;42.72;;;18.90;99.90;;;;;;5057672;28;25064;-62
2022/05/19 02:22:13;;;;;;;76.65;49.67;;;18.90;99.90;;;;;;5057843;28;25098;-61
2022/05/19 02:24:45;;;;;;;53.10;36.45;;;18.80;99.90;;;;;;5058485;28;25110;-60
2022/05/19 02:27:45;;;;;;;60.10;20.90;;;18.60;99.90;;;;;;5057221;28;25059;-63
2022/05/19 02:30:15;;;;;;;21.77;4.65;;;18.30;99.90;;;;;;5057206;28;25164;-60
2022/05/19 02:32:40;;;;;;;16.90;4.45;;;17.70;99.90;;;;;;5056553;28;25147;-60
2022/05/19 02:35:07;;;;;;;19.67;3.88;;;17.30;99.90;;;;;;5057559;28;25104;-61
2022/05/19 02:37:34;;;;;;;13.93;3.50;;;17.10;99.90;;;;;;5056184;28;25052;-61
2022/05/19 02:39:59;;;;;;;14.50;3.22;;;17.00;99.90;;;;;;5057639;28;25114;-61
2022/05/19 02:42:25;;;;;;;6.35;2.88;;;17.00;99.90;;;;;;5057126;28;25059;-61
2022/05/19 02:44:51;;;;;;;8.27;2.60;;;17.00;99.90;;;;;;5056108;28;25062;-62
2022/05/19 02:47:17;;;;;;;5.28;3.03;;;17.00;99.90;;;;;;5057250;28;25077;-61
2022/05/19 02:49:42;;;;;;;6.85;3.70;;;17.10;99.90;;;;;;5056921;28;25089;-61
2022/05/19 02:52:08;;;;;;;9.02;3.67;;;17.10;99.90;;;;;;5057196;28;25126;-61
2022/05/19 02:54:34;;;;;;;6.40;3.88;;;17.10;99.90;;;;;;5056002;28;25067;-61
2022/05/19 02:56:59;;;;;;;11.85;5.75;;;17.20;99.90;;;;;;5057138;28;25066;-61
2022/05/19 02:59:25;;;;;;;8.82;6.05;;;17.30;99.90;;;;;;5056647;28;25070;-61
2022/05/19 03:01:50;;;;;;;11.95;6.97;;;17.40;99.90;;;;;;5055782;28;25114;-61
2022/05/19 03:04:16;;;;;;;11.35;7.30;;;17.50;99.90;;;;;;5056967;28;25075;-61
2022/05/19 03:06:41;;;;;;;12.25;8.73;;;17.60;99.90;;;;;;5057752;28;25092;-62
2022/05/19 03:09:07;;;;;;;10.27;7.65;;;17.70;99.90;;;;;;5057502;28;25078;-61
2022/05/19 03:11:33;;;;;;;8.43;6.55;;;17.70;99.90;;;;;;5057260;28;25089;-61
2022/05/19 03:13:59;;;;;;;8.48;6.22;;;17.70;99.90;;;;;;5056876;28;25170;-61
2022/05/19 03:16:25;;;;;;;8.63;7.28;;;17.80;99.90;;;;;;5058942;28;25096;-60
2022/05/19 03:18:50;;;;;;;10.98;7.22;;;17.80;99.90;;;;;;5055725;28;25078;-61
2022/05/19 03:21:16;;;;;;;8.63;7.10;;;17.80;99.90;;;;;;5054652;28;25085;-61
2022/05/19 03:23:41;;;;;;;8.50;5.75;;;17.90;99.90;;;;;;5056600;28;25109;-61
2022/05/19 03:26:07;;;;;;;5.32;4.78;;;17.80;99.90;;;;;;5056588;28;25086;-61
2022/05/19 03:28:33;;;;;;;8.32;6.00;;;17.80;99.90;;;;;;5056662;28;25151;-62
2022/05/19 03:30:59;;;;;;;13.43;6.10;;;17.80;99.90;;;;;;5056611;28;25080;-62
2022/05/19 03:33:24;;;;;;;7.80;5.65;;;17.90;99.90;;;;;;5056560;28;25081;-62
2022/05/19 03:36:00;;;;;;;5.97;4.82;;;17.90;99.90;;;;;;5056998;28;25126;-60
2022/05/19 03:38:27;;;;;;;7.68;4.80;;;17.80;99.90;;;;;;5057376;28;25113;-60
2022/05/19 03:40:52;;;;;;;7.82;5.22;;;17.80;99.90;;;;;;5055342;28;25055;-62
2022/05/19 03:43:18;;;;;;;8.80;5.57;;;17.80;99.90;;;;;;5054702;28;25070;-62
2022/05/19 03:45:44;;;;;;;7.95;5.05;;;17.80;99.90;;;;;;5056493;28;25072;-62
2022/05/19 03:48:10;;;;;;;7.57;4.38;;;17.80;99.90;;;;;;5057293;28;25128;-63
2022/05/19 03:50:35;;;;;;;6.50;3.78;;;17.80;99.90;;;;;;5056257;28;25063;-61
2022/05/19 03:53:01;;;;;;;5.10;3.70;;;17.80;99.90;;;;;;5056138;28;25083;-60
2022/05/19 03:55:26;;;;;;;8.23;4.40;;;17.80;99.90;;;;;;5055026;28;25107;-61
2022/05/19 03:57:52;;;;;;;8.50;4.72;;;17.90;99.90;;;;;;5056917;28;25062;-61
2022/05/19 04:00:18;;;;;;;12.52;6.07;;;17.80;99.90;;;;;;5056472;28;25063;-63
2022/05/19 04:02:45;;;;;;;6.40;4.78;;;17.80;99.90;;;;;;5056121;28;25142;-62
2022/05/19 04:05:12;;;;;;;6.90;4.88;;;17.70;99.90;;;;;;5053857;28;25152;-61
2022/05/19 04:07:39;;;;;;;10.73;5.25;;;17.70;99.90;;;;;;5055609;28;25093;-62
2022/05/19 04:10:06;;;;;;;16.00;6.45;;;17.70;99.90;;;;;;5057946;28;25049;-61
2022/05/19 04:12:32;;;;;;;11.45;6.13;;;17.70;99.90;;;;;;5055345;28;25090;-61
2022/05/19 04:14:57;;;;;;;9.63;8.00;;;17.60;99.90;;;;;;5054651;28;25108;-62
2022/05/19 04:17:23;;;;;;;14.90;10.27;;;17.60;99.90;;;;;;5055457;28;25128;-61
2022/05/19 04:19:48;;;;;;;13.70;11.30;;;17.60;99.90;;;;;;5054294;28;25083;-61
2022/05/19 04:22:14;;;;;;;12.35;9.35;;;17.60;99.90;;;;;;5055866;28;25076;-62
2022/05/19 04:24:39;;;;;;;15.40;11.25;;;17.60;99.90;;;;;;5055569;28;25160;-61
2022/05/19 04:27:05;;;;;;;19.08;13.95;;;17.70;99.90;;;;;;5060325;28;25096;-61
2022/05/19 04:29:31;;;;;;;17.67;13.50;;;17.70;99.90;;;;;;5066047;28;25059;-61
2022/05/19 04:31:56;;;;;;;14.88;12.07;;;17.70;99.90;;;;;;5069404;28;25057;-60
2022/05/19 04:34:22;;;;;;;14.65;10.05;;;17.70;99.90;;;;;;5062181;28;25103;-61
2022/05/19 04:36:47;;;;;;;19.25;14.55;;;17.80;99.90;;;;;;5057106;28;25075;-61
2022/05/19 04:39:13;;;;;;;22.35;16.50;;;17.80;99.90;;;;;;5058198;28;25059;-61
2022/05/19 04:41:39;;;;;;;22.00;14.20;;;17.80;99.90;;;;;;5055000;28;25153;-61
2022/05/19 04:44:05;;;;;;;22.90;16.17;;;17.80;99.90;;;;;;5055727;28;25069;-61
2022/05/19 04:46:30;;;;;;;23.08;15.88;;;17.90;99.90;;;;;;5055062;28;25072;-61
2022/05/19 04:48:56;;;;;;;20.70;16.58;;;17.90;99.90;;;;;;5055537;28;25075;-61
2022/05/19 04:51:21;;;;;;;23.13;15.38;;;17.90;99.90;;;;;;5055024;28;25062;-62
2022/05/19 04:53:47;;;;;;;18.65;14.02;;;17.90;99.90;;;;;;5054942;28;25116;-61
2022/05/19 04:56:13;;;;;;;20.63;15.05;;;17.90;99.90;;;;;;5055630;28;25142;-61
2022/05/19 04:58:38;;;;;;;20.60;15.57;;;17.90;99.90;;;;;;5055611;28;25063;-62
2022/05/19 05:01:05;;;;;;;17.42;13.95;;;17.90;99.90;;;;;;5055597;28;25130;-63
2022/05/19 05:03:30;;;;;;;15.82;13.52;;;18.00;99.90;;;;;;5055163;28;25045;-60
2022/05/19 05:05:56;;;;;;;27.50;16.95;;;18.00;99.90;;;;;;5053826;28;25057;-61
2022/05/19 05:08:21;;;;;;;21.23;15.77;;;18.10;99.90;;;;;;5054799;28;25070;-61
2022/05/19 05:10:47;;;;;;;17.63;14.50;;;18.00;99.90;;;;;;5054616;28;25144;-61
2022/05/19 05:13:14;;;;;;;16.20;13.57;;;17.90;99.90;;;;;;5054513;28;25074;-60
2022/05/19 05:15:42;;;;;;;15.95;12.48;;;18.00;99.90;;;;;;5054494;28;25060;-61
2022/05/19 05:18:08;;;;;;;13.27;11.88;;;18.00;99.90;;;;;;5054481;28;25091;-61
2022/05/19 05:20:33;;;;;;;15.70;12.85;;;18.10;99.90;;;;;;5053726;28;25086;-61
2022/05/19 05:22:59;;;;;;;14.30;11.68;;;18.00;99.90;;;;;;5054694;28;25099;-61
2022/05/19 05:25:29;;;;;;;18.33;12.70;;;18.10;99.90;;;;;;5054609;28;25090;-58
2022/05/19 05:27:55;;;;;;;13.82;10.63;;;18.00;99.90;;;;;;5059447;28;25049;-60
2022/05/19 05:30:21;;;;;;;13.75;10.55;;;18.00;99.90;;;;;;5059576;28;25110;-62
2022/05/19 05:32:46;;;;;;;16.52;14.20;;;18.10;99.90;;;;;;5058787;28;25090;-62
2022/05/19 05:35:12;;;;;;;16.45;13.25;;;18.10;99.90;;;;;;5058433;28;25079;-61
2022/05/19 05:37:38;;;;;;;21.27;12.85;;;18.10;99.90;;;;;;5058988;28;25066;-60
2022/05/19 05:40:07;;;;;;;18.83;13.77;;;18.10;99.90;;;;;;5058956;28;25054;-61
2022/05/19 05:42:33;;;;;;;19.52;13.98;;;18.20;99.90;;;;;;5058450;28;25160;-60
2022/05/19 05:44:58;;;;;;;12.55;11.25;;;18.30;99.90;;;;;;5058193;28;25216;-61
2022/05/19 05:47:24;;;;;;;13.15;11.15;;;18.30;99.90;;;;;;5060041;28;25049;-60
2022/05/19 05:49:50;;;;;;;17.15;10.48;;;18.20;99.90;;;;;;5070386;28;25067;-61
2022/05/19 05:52:15;;;;;;;13.82;10.63;;;18.20;99.90;;;;;;5059844;28;25084;-61
2022/05/19 05:54:41;;;;;;;13.95;12.55;;;18.10;99.90;;;;;;5058600;28;25579;-61
2022/05/19 05:57:06;;;;;;;19.50;14.43;;;18.10;99.90;;;;;;5058018;28;25147;-61
2022/05/19 05:59:32;;;;;;;19.35;15.55;;;18.20;99.90;;;;;;5056507;28;25065;-61
2022/05/19 06:01:58;;;;;;;10.55;8.82;;;18.40;99.90;;;;;;5058853;28;25098;-61
2022/05/19 06:04:23;;;;;;;17.55;14.68;;;18.50;99.90;;;;;;5059048;28;25074;-60
2022/05/19 06:06:49;;;;;;;19.00;11.50;;;18.50;99.90;;;;;;5058886;28;25139;-60
2022/05/19 06:09:15;;;;;;;20.58;13.55;;;18.60;99.90;;;;;;5058479;28;25128;-60
2022/05/19 06:11:42;;;;;;;20.95;12.13;;;18.70;99.90;;;;;;5058828;28;25078;-60
2022/05/19 06:14:08;;;;;;;17.77;13.68;;;18.70;99.90;;;;;;5058154;28;25060;-63
2022/05/19 06:16:34;;;;;;;16.77;14.07;;;18.70;99.90;;;;;;5056925;28;25063;-61
2022/05/19 06:18:59;;;;;;;16.23;13.57;;;18.70;99.90;;;;;;5056884;28;25054;-61
2022/05/19 06:21:25;;;;;;;17.40;14.18;;;18.70;99.90;;;;;;5058013;28;25081;-61
2022/05/19 06:23:51;;;;;;;19.10;14.13;;;18.70;99.90;;;;;;5058147;28;25132;-61
2022/05/19 06:26:17;;;;;;;15.68;12.00;;;18.70;99.90;;;;;;5057660;28;25065;-61
2022/05/19 06:28:43;;;;;;;12.68;8.85;;;18.60;99.90;;;;;;5058498;28;25084;-61
2022/05/19 06:31:08;;;;;;;12.25;9.27;;;18.50;99.90;;;;;;5058013;28;25057;-60
2022/05/19 06:33:36;;;;;;;14.05;10.05;;;18.30;99.90;;;;;;5058894;28;25171;-61
2022/05/19 06:36:03;;;;;;;13.75;9.48;;;18.30;99.90;;;;;;5056560;28;25085;-61
2022/05/19 06:38:30;;;;;;;10.57;9.48;;;18.40;99.90;;;;;;5057800;28;25117;-61
2022/05/19 06:42:00;;;;;;;16.80;11.50;;;18.50;99.90;;;;;;5059103;28;25074;-60
2022/05/19 06:43:41;;;;;;;12.85;9.75;;;18.50;99.90;;;;;;5059516;28;25079;-61
2022/05/19 06:46:06;;;;;;;11.13;8.10;;;18.50;99.90;;;;;;5058951;28;25120;-61
2022/05/19 06:48:32;;;;;;;14.30;10.27;;;18.60;99.90;;;;;;5056560;28;25076;-62
2022/05/19 06:50:57;;;;;;;17.58;11.50;;;18.70;99.90;;;;;;5056889;28;25118;-61
2022/05/19 06:53:23;;;;;;;10.98;9.32;;;18.70;99.90;;;;;;5056368;28;25108;-61
2022/05/19 06:55:48;;;;;;;10.07;7.95;;;18.80;99.90;;;;;;5057291;28;25088;-62
2022/05/19 06:58:14;;;;;;;9.50;7.47;;;18.90;99.90;;;;;;5057543;28;25136;-60
2022/05/19 07:00:40;;;;;;;9.88;7.82;;;18.80;99.90;;;;;;5056757;28;25082;-61
2022/05/19 07:03:06;;;;;;;8.52;6.97;;;18.80;99.90;;;;;;5057354;28;25070;-60
2022/05/19 07:05:36;;;;;;;9.85;8.85;;;18.90;99.90;;;;;;5056942;28;25107;-61
2022/05/19 07:08:02;;;;;;;9.65;7.88;;;19.10;99.90;;;;;;5057185;28;25070;-60
2022/05/19 07:10:28;;;;;;;13.77;8.15;;;19.20;99.90;;;;;;5057526;28;25137;-61
2022/05/19 07:12:55;;;;;;;13.27;8.10;;;19.20;99.90;;;;;;5057275;28;25065;-61
2022/05/19 07:15:22;;;;;;;8.10;7.35;;;19.10;99.90;;;;;;5057227;28;25078;-60
2022/05/19 07:17:48;;;;;;;10.48;7.70;;;19.10;99.90;;;;;;5056074;28;25106;-61
2022/05/19 07:22:59;;;;;;;9.90;8.88;;;18.90;99.90;;;;;;5056704;28;25104;-61
2022/05/19 07:25:24;;;;;;;11.95;9.15;;;18.90;99.90;;;;;;5057180;28;25080;-61
2022/05/19 07:27:50;;;;;;;10.65;8.90;;;19.20;99.90;;;;;;5056943;28;25153;-62
2022/05/19 07:30:16;;;;;;;13.23;10.48;;;19.30;99.90;;;;;;5055924;28;25082;-61
2022/05/19 07:32:42;;;;;;;11.25;9.85;;;19.60;99.90;;;;;;5054932;28;25103;-60
2022/05/19 07:35:10;;;;;;;11.23;10.13;;;19.80;99.90;;;;;;5055464;28;25078;-62
2022/05/19 07:37:36;;;;;;;11.02;9.88;;;19.80;99.90;;;;;;5057063;28;25083;-60
2022/05/19 07:40:04;;;;;;;10.00;8.27;;;19.80;99.90;;;;;;5057060;28;25128;-61
2022/05/19 07:42:30;;;;;;;15.43;10.50;;;19.90;99.90;;;;;;5055533;28;25103;-60
2022/05/19 07:44:56;;;;;;;15.73;9.27;;;20.00;99.90;;;;;;5056079;28;25096;-63
2022/05/19 07:47:21;;;;;;;10.30;9.10;;;20.00;99.90;;;;;;5055334;28;25104;-60
2022/05/19 07:49:47;;;;;;;10.45;8.98;;;20.10;99.90;;;;;;5054947;28;25141;-61
2022/05/19 07:52:13;;;;;;;13.18;10.32;;;20.10;99.90;;;;;;5057174;28;25129;-61
2022/05/19 07:54:39;;;;;;;12.38;7.68;;;20.30;99.90;;;;;;5055357;28;25114;-61
2022/05/19 07:57:05;;;;;;;12.52;8.75;;;20.40;99.90;;;;;;5055265;28;25150;-63
2022/05/19 07:59:31;;;;;;;10.45;8.88;;;20.40;99.90;;;;;;5055950;28;25070;-59
2022/05/19 08:01:57;;;;;;;19.15;8.50;;;20.10;99.90;;;;;;5056510;28;25102;-61
2022/05/19 08:04:25;;;;;;;14.63;9.45;;;20.00;99.90;;;;;;5056789;28;25083;-61
2022/05/19 08:06:52;;;;;;;10.43;7.63;;;20.10;99.90;;;;;;5055372;28;25068;-60
2022/05/19 08:12:05;;;;;;;10.98;8.07;;;19.90;99.90;;;;;;5055811;28;25058;-61
2022/05/19 08:17:17;;;;;;;9.70;7.53;;;20.20;99.90;;;;;;5054788;28;25072;-61
2022/05/19 08:19:43;;;;;;;11.80;8.80;;;20.20;99.90;;;;;;5055633;28;25142;-61
2022/05/19 08:22:09;;;;;;;10.38;8.50;;;20.20;99.90;;;;;;5055631;28;25071;-60
2022/05/19 08:24:36;;;;;;;13.60;8.25;;;20.20;99.90;;;;;;5055431;28;25062;-61
2022/05/19 08:27:02;;;;;;;11.75;9.20;;;20.40;99.90;;;;;;5053582;28;25074;-61
2022/05/19 08:29:28;;;;;;;11.77;8.10;;;20.50;99.90;;;;;;5054371;28;25089;-60
2022/05/19 08:31:55;;;;;;;11.38;7.72;;;20.60;99.90;;;;;;5054494;28;25089;-62
2022/05/19 08:34:22;;;;;;;8.43;7.55;;;20.60;99.90;;;;;;5054472;28;25077;-63
2022/05/19 08:36:47;;;;;;;11.95;7.90;;;20.60;99.90;;;;;;5054620;28;25070;-62
2022/05/19 08:39:14;;;;;;;8.60;7.70;;;20.70;99.90;;;;;;5055008;28;25067;-60
2022/05/19 08:41:47;;;;;;;10.13;7.25;;;20.60;99.90;;;;;;5055224;28;25165;-61
2022/05/19 08:44:24;;;;;;;11.68;7.50;;;20.90;99.90;;;;;;5054019;28;25134;-60
2022/05/19 08:46:51;;;;;;;9.35;7.82;;;21.30;99.90;;;;;;5054590;28;25066;-60
2022/05/19 08:49:23;;;;;;;9.90;7.80;;;21.30;99.90;;;;;;5055044;28;25145;-60
2022/05/19 08:52:00;;;;;;;14.45;8.25;;;21.30;99.90;;;;;;5055576;28;25101;-60
2022/05/19 08:54:25;;;;;;;9.38;8.35;;;21.40;99.90;;;;;;5054895;28;25080;-60
2022/05/19 08:57:10;;;;;;;10.18;7.95;;;21.60;99.90;;;;;;5055955;28;25061;-61
2022/05/19 08:59:57;;;;;;;9.43;8.43;;;21.70;99.90;;;;;;5054121;28;25286;-60
2022/05/19 09:02:26;;;;;;;11.32;8.05;;;21.90;99.90;;;;;;5055479;28;25101;-60
2022/05/19 09:04:52;;;;;;;10.40;8.05;;;22.00;99.90;;;;;;5055015;28;25096;-60
2022/05/19 09:10:38;;;;;;;8.68;7.78;;;22.60;99.90;;;;;;5055412;28;25055;-61
2022/05/19 09:13:18;;;;;;;9.57;8.55;;;22.80;99.90;;;;;;5054204;28;25146;-61
2022/05/19 09:15:45;;;;;;;11.90;9.30;;;22.80;99.90;;;;;;5052819;28;25108;-60
2022/05/19 09:18:14;;;;;;;11.68;9.55;;;22.60;99.90;;;;;;5054713;28;25065;-61
2022/05/19 09:20:52;;;;;;;13.45;9.35;;;22.70;99.90;;;;;;5052956;28;25062;-59
2022/05/19 09:23:18;;;;;;;10.13;8.63;;;22.80;99.90;;;;;;5054174;28;25081;-61
2022/05/19 09:25:49;;;;;;;11.35;8.95;;;22.80;99.90;;;;;;5056058;28;25069;-63
2022/05/19 09:28:15;;;;;;;12.70;9.68;;;23.00;99.90;;;;;;5054589;28;25097;-62
2022/05/19 09:30:46;;;;;;;17.88;10.43;;;23.10;99.90;;;;;;5054181;28;25140;-62
2022/05/19 09:33:20;;;;;;;12.90;10.68;;;22.80;99.90;;;;;;5054168;28;25115;-61
2022/05/19 09:35:51;;;;;;;14.48;9.55;;;22.90;99.90;;;;;;5054458;28;25072;-60
2022/05/19 09:38:27;;;;;;;11.68;10.00;;;22.80;99.90;;;;;;5054193;28;25080;-62
2022/05/19 09:40:58;;;;;;;14.63;10.40;;;22.70;99.90;;;;;;5055618;28;25104;-63
2022/05/19 09:43:32;;;;;;;18.35;10.73;;;22.90;99.90;;;;;;5052551;28;25122;-62
2022/05/19 09:46:14;;;;;;;13.25;9.75;;;23.40;99.90;;;;;;5056689;28;25062;-60
2022/05/19 09:49:03;;;;;;;;;;;23.80;99.90;;;;;;5058228;28;25068;-62
2022/05/19 09:51:41;;;;;;;15.82;11.00;;;23.50;99.90;;;;;;5054774;28;25145;-60
2022/05/19 09:54:12;;;;;;;14.63;10.48;;;23.70;99.90;;;;;;5055726;28;25094;-61
2022/05/19 09:56:44;;;;;;;12.95;10.80;;;23.80;99.90;;;;;;5053911;28;25078;-60
2022/05/19 09:59:24;;;;;;;15.07;10.48;;;24.10;99.90;;;;;;5054595;28;25058;-63
2022/05/19 10:02:11;;;;;;;17.40;10.52;;;24.30;99.90;;;;;;5057884;28;25053;-63
2022/05/19 10:04:39;;;;;;;15.30;10.05;;;24.50;99.90;;;;;;5055999;28;25068;-60
2022/05/19 10:07:22;;;;;;;12.88;10.35;;;24.60;99.90;;;;;;5054581;28;25078;-62
2022/05/19 10:09:48;;;;;;;13.20;11.00;;;24.80;99.90;;;;;;5053429;28;25078;-60
2022/05/19 10:12:22;;;;;;;15.85;11.07;;;24.40;99.90;;;;;;5052608;28;25120;-62
2022/05/19 10:14:56;;;;;;;14.98;11.93;;;24.60;99.90;;;;;;5059072;28;25115;-60
2022/05/19 10:17:57;;;;;;;14.40;10.88;;;24.10;99.90;;;;;;5057843;28;25080;-61
2022/05/19 10:20:29;;;;;;;13.20;11.00;;;24.10;99.90;;;;;;5058146;28;25092;-61
2022/05/19 10:23:14;;;;;;;14.77;12.27;;;24.30;99.90;;;;;;5057994;28;25103;-61
2022/05/19 10:25:39;;;;;;;13.30;12.00;;;24.10;99.90;;;;;;5058785;28;25073;-60
2022/05/19 10:31:07;;;;;;;13.52;11.63;;;24.00;99.90;;;;;;5057570;28;25057;-64
2022/05/19 10:33:36;;;;;;;21.65;17.17;;;24.10;99.90;;;;;;5056559;28;25147;-60
2022/05/19 10:36:23;;;;;;;16.42;14.13;;;23.90;99.90;;;;;;5057386;28;25143;-60
2022/05/19 10:39:14;;;;;;;15.35;12.55;;;23.90;99.90;;;;;;5056656;28;25045;-60
2022/05/19 10:42:01;;;;;;;14.80;13.15;;;23.70;99.90;;;;;;5059373;28;25059;-61
2022/05/19 10:44:51;;;;;;;17.63;14.07;;;23.60;99.90;;;;;;5059368;28;25107;-63
2022/05/19 10:47:32;;;;;;;18.35;12.90;;;23.70;99.90;;;;;;5058241;28;25070;-61
2022/05/19 10:50:09;;;;;;;15.70;14.10;;;23.60;99.90;;;;;;5065515;28;25150;-61
2022/05/19 10:52:50;;;;;;;18.88;15.25;;;23.50;99.90;;;;;;5058529;28;25044;-61
2022/05/19 10:55:39;;;;;;;24.08;17.00;;;23.30;99.90;;;;;;5057287;28;25055;-60
2022/05/19 10:58:30;;;;;;;31.83;21.05;;;23.20;99.90;;;;;;5055292;28;25135;-60
2022/05/19 11:01:34;;;;;;;61.90;36.22;;;22.80;99.90;;;;;;5057748;28;25079;-62
2022/05/19 11:04:28;;;;;;;56.50;33.05;;;21.40;99.90;;;;;;5056659;28;25131;-61
2022/05/19 11:07:13;;;;;;;46.75;25.85;;;19.80;99.90;;;;;;5057756;28;25064;-62
2022/05/19 11:10:01;;;;;;;53.35;24.70;;;19.10;99.90;;;;;;5057180;28;25074;-62
2022/05/19 11:12:58;;;;;;;32.13;17.90;;;18.70;99.90;;;;;;5056153;28;25071;-65
2022/05/19 11:15:47;;;;;;;22.15;13.32;;;18.50;99.90;;;;;;5056298;28;25083;-64
2022/05/19 11:18:28;;;;;;;14.98;8.25;;;18.30;99.90;;;;;;5056523;28;25138;-63
2022/05/19 11:20:59;;;;;;;14.40;9.23;;;17.80;99.90;;;;;;5057420;28;25137;-62
2022/05/19 11:23:53;;;;;;;16.85;11.07;;;17.80;99.90;;;;;;5057494;28;25132;-62
2022/05/19 11:26:32;;;;;;;18.95;12.18;;;17.90;99.90;;;;;;5057256;28;25157;-62
2022/05/19 11:29:13;;;;;;;19.67;15.10;;;17.90;99.90;;;;;;5056380;28;25083;-61
2022/05/19 11:31:49;;;;;;;23.08;16.20;;;17.90;99.90;;;;;;5054575;28;25151;-61
2022/05/19 11:34:18;;;;;;;24.15;20.65;;;18.00;99.90;;;;;;5056089;28;25069;-63
2022/05/19 11:36:51;;;;;;;31.70;23.63;;;18.10;99.90;;;;;;5055914;28;25075;-62
2022/05/19 11:39:35;;;;;;;37.10;27.33;;;18.20;99.90;;;;;;5054344;28;25071;-64
2022/05/19 11:42:31;;;;;;;36.50;29.35;;;18.20;99.90;;;;;;5056867;28;25102;-64
2022/05/19 11:44:56;;;;;;;41.28;29.00;;;18.20;99.90;;;;;;5050532;28;25163;-63
2022/05/19 11:56:02;;;;;;;43.45;34.05;;;18.50;99.90;;;;;;5056858;28;25118;-63
2022/05/19 11:58:35;;;;;;;45.10;32.00;;;18.40;99.90;;;;;;5052180;28;25103;-63
2022/05/19 12:01:06;;;;;;;43.75;31.65;;;18.60;99.90;;;;;;5055776;28;25295;-62
2022/05/19 12:03:50;;;;;;;36.42;29.10;;;18.30;99.90;;;;;;5055873;28;25073;-63
2022/05/19 12:06:20;;;;;;;35.45;26.88;;;18.50;99.90;;;;;;5056560;28;25046;-62
2022/05/19 12:09:21;;;;;;;30.55;25.48;;;18.50;99.90;;;;;;5055330;28;25156;-63
2022/05/19 12:12:05;;;;;;;28.90;25.60;;;18.40;99.90;;;;;;5054988;28;25077;-62
2022/05/19 12:14:40;;;;;;;38.70;30.23;;;18.30;99.90;;;;;;5055750;28;25052;-64
2022/05/19 12:17:06;;;;;;;33.22;25.77;;;18.30;99.90;;;;;;5055963;28;25064;-62
2022/05/19 12:19:36;;;;;;;30.52;24.90;;;18.20;99.90;;;;;;5055128;28;25082;-62
2022/05/19 12:22:05;;;;;;;33.30;23.88;;;18.30;99.90;;;;;;5053399;28;25074;-61
2022/05/19 12:24:54;;;;;;;40.83;25.88;;;18.30;99.90;;;;;;5055541;28;25099;-64
2022/05/19 12:27:24;;;;;;;31.15;20.65;;;18.30;99.90;;;;;;5056168;28;25146;-62
2022/05/19 12:33:21;;;;;;;29.27;22.25;;;18.60;99.90;;;;;;5060606;28;25054;-63
2022/05/19 12:36:05;;;;;;;25.85;22.08;;;18.50;99.90;;;;;;5053262;28;25066;-62
2022/05/19 12:38:31;;;;;;;31.75;25.63;;;18.50;99.90;;;;;;5054600;28;25075;-63
2022/05/19 12:40:59;;;;;;;26.25;21.65;;;18.50;99.90;;;;;;5054305;28;25051;-62
2022/05/19 12:43:30;;;;;;;32.10;22.30;;;18.80;99.90;;;;;;5054471;28;25113;-62
2022/05/19 12:46:00;;;;;;;32.22;23.13;;;19.00;99.90;;;;;;5056712;28;25115;-61
2022/05/19 12:48:32;;;;;;;27.63;23.08;;;19.00;99.90;;;;;;5055193;28;25131;-62
2022/05/19 12:51:11;;;;;;;29.23;20.80;;;19.20;99.90;;;;;;5055875;28;25154;-62
2022/05/19 12:53:49;;;;;;;26.30;22.58;;;19.20;99.90;;;;;;5057005;28;25089;-63
2022/05/19 12:56:40;;;;;;;30.00;21.88;;;19.40;99.90;;;;;;5055308;28;25056;-62
2022/05/19 12:59:09;;;;;;;28.33;24.27;;;19.60;99.90;;;;;;5054400;28;25101;-62
2022/05/19 13:01:44;;;;;;;29.77;24.02;;;19.60;99.90;;;;;;5053984;28;25093;-62
2022/05/19 13:04:10;;;;;;;31.17;25.23;;;19.70;99.90;;;;;;5055961;28;25138;-62
2022/05/19 13:06:44;;;;;;;31.88;23.80;;;19.90;99.90;;;;;;5053775;28;25071;-62
2022/05/19 13:09:10;;;;;;;28.02;22.88;;;20.10;99.90;;;;;;5054817;28;25139;-63
2022/05/19 13:11:44;;;;;;;24.00;20.13;;;20.00;99.90;;;;;;5052347;28;25082;-61
2022/05/19 13:14:16;;;;;;;28.88;21.15;;;19.40;99.90;;;;;;5054810;28;25078;-61
2022/05/19 13:16:45;;;;;;;23.83;20.05;;;19.70;99.90;;;;;;5054395;28;25069;-61
2022/05/19 13:19:30;;;;;;;24.58;18.85;;;20.00;99.90;;;;;;5055156;28;25062;-62